sensor_id;sensor_type;location;lat;lon;timestamp;pressure;altitude;pressure_sealevel;temperature;humidity
77153;BME280;66124;51.146;17.072;2023-11-19T00:01:33;100740.48;;;2.86;82.31
77153;BME280;66124;51.146;17.072;2023-11-19T00:04:03;100742.69;;;2.84;82.26
77153;BME280;66124;51.146;17.072;2023-11-19T00:06:32;100740.66;;;2.84;82.51
77153;BME280;66124;51.146;17.072;2023-11-19T00:09:02;100736.56;;;2.83;82.44
77153;BME280;66124;51.146;17.072;2023-11-19T00:11:31;100722.95;;;2.82;82.56
77153;BME280;66124;51.146;17.072;2023-11-19T00:14:01;100714.75;;;2.80;82.31
77153;BME280;66124;51.146;17.072;2023-11-19T00:16:30;100706.30;;;2.77;82.27
77153;BME280;66124;51.146;17.072;2023-11-19T00:18:59;100698.96;;;2.73;82.16
77153;BME280;66124;51.146;17.072;2023-11-19T00:21:29;100686.86;;;2.70;82.44
77153;BME280;66124;51.146;17.072;2023-11-19T00:23:58;100689.25;;;2.68;82.35
77153;BME280;66124;51.146;17.072;2023-11-19T00:26:28;100687.52;;;2.66;82.55
77153;BME280;66124;51.146;17.072;2023-11-19T00:28:58;100678.29;;;2.64;82.69
77153;BME280;66124;51.146;17.072;2023-11-19T00:31:27;100669.15;;;2.61;82.81
77153;BME280;66124;51.146;17.072;2023-11-19T00:33:55;100665.75;;;2.58;82.65
77153;BME280;66124;51.146;17.072;2023-11-19T00:36:23;100665.58;;;2.56;82.66
77153;BME280;66124;51.146;17.072;2023-11-19T00:46:31;100646.55;;;2.51;83.06
77153;BME280;66124;51.146;17.072;2023-11-19T00:49:00;100636.61;;;2.47;82.81
77153;BME280;66124;51.146;17.072;2023-11-19T00:51:29;100621.83;;;2.45;82.91
77153;BME280;66124;51.146;17.072;2023-11-19T00:53:59;100612.84;;;2.43;82.84
77153;BME280;66124;51.146;17.072;2023-11-19T00:56:28;100610.41;;;2.40;82.75
77153;BME280;66124;51.146;17.072;2023-11-19T00:58:59;100611.97;;;2.36;82.85
77153;BME280;66124;51.146;17.072;2023-11-19T01:01:28;100620.48;;;2.31;83.19
77153;BME280;66124;51.146;17.072;2023-11-19T01:03:58;100614.10;;;2.29;82.92
77153;BME280;66124;51.146;17.072;2023-11-19T01:06:31;100601.57;;;2.27;83.15
77153;BME280;66124;51.146;17.072;2023-11-19T01:09:01;100591.11;;;2.26;82.87
77153;BME280;66124;51.146;17.072;2023-11-19T01:11:30;100577.67;;;2.24;82.99
77153;BME280;66124;51.146;17.072;2023-11-19T01:14:00;100566.09;;;2.21;83.33
77153;BME280;66124;51.146;17.072;2023-11-19T01:16:30;100560.45;;;2.18;83.15
77153;BME280;66124;51.146;17.072;2023-11-19T01:18:59;100549.92;;;2.15;83.19
77153;BME280;66124;51.146;17.072;2023-11-19T01:21:29;100538.34;;;2.12;83.36
77153;BME280;66124;51.146;17.072;2023-11-19T01:23:58;100536.80;;;2.10;83.21
77153;BME280;66124;51.146;17.072;2023-11-19T01:26:28;100531.52;;;2.07;83.29
77153;BME280;66124;51.146;17.072;2023-11-19T01:28:57;100520.11;;;2.04;83.35
77153;BME280;66124;51.146;17.072;2023-11-19T01:31:27;100510.02;;;2.02;83.16
77153;BME280;66124;51.146;17.072;2023-11-19T01:33:56;100508.33;;;1.99;83.62
77153;BME280;66124;51.146;17.072;2023-11-19T01:36:25;100515.29;;;1.97;83.49
77153;BME280;66124;51.146;17.072;2023-11-19T01:38:55;100512.16;;;1.95;83.62
77153;BME280;66124;51.146;17.072;2023-11-19T01:41:24;100506.34;;;1.94;83.30
77153;BME280;66124;51.146;17.072;2023-11-19T01:43:54;100497.90;;;1.93;83.24
77153;BME280;66124;51.146;17.072;2023-11-19T01:46:23;100495.09;;;1.93;83.62
77153;BME280;66124;51.146;17.072;2023-11-19T01:48:53;100491.99;;;1.93;83.54
77153;BME280;66124;51.146;17.072;2023-11-19T01:51:23;100499.97;;;1.93;83.63
77153;BME280;66124;51.146;17.072;2023-11-19T01:53:53;100500.81;;;1.93;83.51
77153;BME280;66124;51.146;17.072;2023-11-19T01:56:24;100500.77;;;1.94;83.43
77153;BME280;66124;51.146;17.072;2023-11-19T01:58:53;100487.34;;;1.95;83.51
77153;BME280;66124;51.146;17.072;2023-11-19T02:09:12;100463.15;;;2.01;83.32
77153;BME280;66124;51.146;17.072;2023-11-19T02:11:42;100466.41;;;1.99;83.14
77153;BME280;66124;51.146;17.072;2023-11-19T02:14:11;100472.21;;;1.98;83.47
77153;BME280;66124;51.146;17.072;2023-11-19T02:16:41;100477.14;;;1.99;83.35
77153;BME280;66124;51.146;17.072;2023-11-19T02:19:10;100468.42;;;1.99;83.39
77153;BME280;66124;51.146;17.072;2023-11-19T02:21:40;100454.05;;;1.99;83.20
77153;BME280;66124;51.146;17.072;2023-11-19T02:24:14;100448.85;;;1.99;83.29
77153;BME280;66124;51.146;17.072;2023-11-19T02:26:50;100444.05;;;1.98;83.55
77153;BME280;66124;51.146;17.072;2023-11-19T02:29:22;100443.66;;;1.99;82.96
77153;BME280;66124;51.146;17.072;2023-11-19T02:31:51;100438.08;;;2.00;83.03
77153;BME280;66124;51.146;17.072;2023-11-19T02:34:21;100435.77;;;2.01;83.17
77153;BME280;66124;51.146;17.072;2023-11-19T02:36:50;100433.46;;;2.01;83.20
77153;BME280;66124;51.146;17.072;2023-11-19T02:39:20;100423.77;;;2.01;83.13
77153;BME280;66124;51.146;17.072;2023-11-19T02:41:49;100411.07;;;2.01;82.94
77153;BME280;66124;51.146;17.072;2023-11-19T02:44:19;100409.80;;;2.02;83.04
77153;BME280;66124;51.146;17.072;2023-11-19T02:46:48;100408.43;;;2.00;82.84
77153;BME280;66124;51.146;17.072;2023-11-19T02:49:17;100414.45;;;1.98;83.09
77153;BME280;66124;51.146;17.072;2023-11-19T02:51:47;100414.80;;;1.98;82.96
77153;BME280;66124;51.146;17.072;2023-11-19T02:54:16;100411.48;;;1.98;83.22
77153;BME280;66124;51.146;17.072;2023-11-19T02:56:46;100412.36;;;1.98;82.91
77153;BME280;66124;51.146;17.072;2023-11-19T02:59:15;100397.72;;;1.99;82.95
77153;BME280;66124;51.146;17.072;2023-11-19T03:01:45;100389.04;;;1.99;83.03
77153;BME280;66124;51.146;17.072;2023-11-19T03:04:15;100391.98;;;2.00;82.60
77153;BME280;66124;51.146;17.072;2023-11-19T03:06:44;100382.77;;;1.99;83.11
77153;BME280;66124;51.146;17.072;2023-11-19T03:09:14;100367.40;;;2.01;82.78
77153;BME280;66124;51.146;17.072;2023-11-19T03:11:43;100361.20;;;2.03;82.97
77153;BME280;66124;51.146;17.072;2023-11-19T03:14:13;100359.52;;;2.04;83.15
77153;BME280;66124;51.146;17.072;2023-11-19T03:16:42;100349.73;;;2.03;82.80
77153;BME280;66124;51.146;17.072;2023-11-19T03:19:14;100344.95;;;2.02;82.84
77153;BME280;66124;51.146;17.072;2023-11-19T03:21:41;100341.10;;;2.03;83.02
77153;BME280;66124;51.146;17.072;2023-11-19T03:31:06;100339.08;;;2.13;82.84
77153;BME280;66124;51.146;17.072;2023-11-19T03:33:35;100332.61;;;2.11;82.88
77153;BME280;66124;51.146;17.072;2023-11-19T03:36:07;100328.13;;;2.11;82.58
77153;BME280;66124;51.146;17.072;2023-11-19T03:38:36;100329.81;;;2.12;82.63
77153;BME280;66124;51.146;17.072;2023-11-19T03:41:12;100324.17;;;2.13;82.48
77153;BME280;66124;51.146;17.072;2023-11-19T03:43:43;100317.46;;;2.14;82.61
77153;BME280;66124;51.146;17.072;2023-11-19T03:46:20;100309.21;;;2.13;82.61
77153;BME280;66124;51.146;17.072;2023-11-19T03:48:50;100294.58;;;2.12;82.65
77153;BME280;66124;51.146;17.072;2023-11-19T03:51:20;100294.58;;;2.12;82.45
77153;BME280;66124;51.146;17.072;2023-11-19T03:53:49;100296.02;;;2.11;82.39
77153;BME280;66124;51.146;17.072;2023-11-19T03:56:18;100289.88;;;2.10;82.32
77153;BME280;66124;51.146;17.072;2023-11-19T03:58:48;100275.06;;;2.09;82.25
77153;BME280;66124;51.146;17.072;2023-11-19T04:01:17;100271.40;;;2.09;82.29
77153;BME280;66124;51.146;17.072;2023-11-19T04:03:47;100263.27;;;2.09;82.11
77153;BME280;66124;51.146;17.072;2023-11-19T04:06:16;100266.52;;;2.09;82.27
77153;BME280;66124;51.146;17.072;2023-11-19T04:08:46;100269.19;;;2.08;82.43
77153;BME280;66124;51.146;17.072;2023-11-19T04:11:15;100269.46;;;2.09;82.11
77153;BME280;66124;51.146;17.072;2023-11-19T04:13:45;100257.33;;;2.09;82.41
77153;BME280;66124;51.146;17.072;2023-11-19T04:16:14;100243.83;;;2.09;82.38
77153;BME280;66124;51.146;17.072;2023-11-19T04:18:43;100231.12;;;2.09;82.08
77153;BME280;66124;51.146;17.072;2023-11-19T04:21:13;100224.67;;;2.10;82.03
77153;BME280;66124;51.146;17.072;2023-11-19T04:23:42;100211.41;;;2.11;82.13
77153;BME280;66124;51.146;17.072;2023-11-19T04:26:12;100205.47;;;2.12;82.00
77153;BME280;66124;51.146;17.072;2023-11-19T04:28:41;100197.72;;;2.11;82.47
77153;BME280;66124;51.146;17.072;2023-11-19T04:31:11;100184.23;;;2.13;82.04
77153;BME280;66124;51.146;17.072;2023-11-19T04:33:40;100172.50;;;2.12;81.96
77153;BME280;66124;51.146;17.072;2023-11-19T04:36:11;100162.66;;;2.12;81.95
77153;BME280;66124;51.146;17.072;2023-11-19T04:38:40;100152.98;;;2.11;81.94
77153;BME280;66124;51.146;17.072;2023-11-19T04:41:09;100144.35;;;2.10;81.81
77153;BME280;66124;51.146;17.072;2023-11-19T04:43:37;100145.70;;;2.11;81.75
77153;BME280;66124;51.146;17.072;2023-11-19T04:51:08;100143.82;;;2.19;81.46
77153;BME280;66124;51.146;17.072;2023-11-19T04:53:37;100143.80;;;2.20;81.83
77153;BME280;66124;51.146;17.072;2023-11-19T04:56:11;100140.09;;;2.21;81.64
77153;BME280;66124;51.146;17.072;2023-11-19T04:58:40;100141.73;;;2.20;81.58
77153;BME280;66124;51.146;17.072;2023-11-19T05:01:14;100137.33;;;2.18;81.40
77153;BME280;66124;51.146;17.072;2023-11-19T05:03:44;100128.44;;;2.19;81.32
77153;BME280;66124;51.146;17.072;2023-11-19T05:06:14;100128.86;;;2.20;81.41
77153;BME280;66124;51.146;17.072;2023-11-19T05:08:43;100125.22;;;2.22;81.17
77153;BME280;66124;51.146;17.072;2023-11-19T05:11:13;100122.65;;;2.22;81.20
77153;BME280;66124;51.146;17.072;2023-11-19T05:13:42;100111.65;;;2.23;81.26
77153;BME280;66124;51.146;17.072;2023-11-19T05:16:11;100107.66;;;2.25;81.06
77153;BME280;66124;51.146;17.072;2023-11-19T05:18:41;100107.05;;;2.26;81.22
77153;BME280;66124;51.146;17.072;2023-11-19T05:21:10;100096.51;;;2.27;81.14
77153;BME280;66124;51.146;17.072;2023-11-19T05:23:40;100083.35;;;2.27;81.37
77153;BME280;66124;51.146;17.072;2023-11-19T05:26:09;100074.98;;;2.26;81.33
77153;BME280;66124;51.146;17.072;2023-11-19T05:28:40;100069.41;;;2.26;81.43
77153;BME280;66124;51.146;17.072;2023-11-19T05:31:09;100072.11;;;2.27;81.22
77153;BME280;66124;51.146;17.072;2023-11-19T05:33:39;100066.91;;;2.28;81.01
77153;BME280;66124;51.146;17.072;2023-11-19T05:36:11;100066.04;;;2.31;81.22
77153;BME280;66124;51.146;17.072;2023-11-19T05:38:41;100062.92;;;2.32;81.00
77153;BME280;66124;51.146;17.072;2023-11-19T05:41:11;100064.85;;;2.34;81.22
77153;BME280;66124;51.146;17.072;2023-11-19T05:43:40;100058.89;;;2.35;81.03
77153;BME280;66124;51.146;17.072;2023-11-19T05:46:10;100058.48;;;2.36;81.37
77153;BME280;66124;51.146;17.072;2023-11-19T05:48:39;100060.28;;;2.37;81.22
77153;BME280;66124;51.146;17.072;2023-11-19T05:51:09;100055.58;;;2.39;81.21
77153;BME280;66124;51.146;17.072;2023-11-19T05:53:38;100056.98;;;2.41;81.20
77153;BME280;66124;51.146;17.072;2023-11-19T05:56:08;100055.33;;;2.42;81.16
77153;BME280;66124;51.146;17.072;2023-11-19T05:58:37;100041.39;;;2.45;81.23
77153;BME280;66124;51.146;17.072;2023-11-19T06:01:06;100036.86;;;2.47;81.15
77153;BME280;66124;51.146;17.072;2023-11-19T06:03:33;100038.42;;;2.47;80.98
77153;BME280;66124;51.146;17.072;2023-11-19T06:11:14;100025.09;;;2.52;81.06
77153;BME280;66124;51.146;17.072;2023-11-19T06:13:44;100031.80;;;2.55;80.97
77153;BME280;66124;51.146;17.072;2023-11-19T06:16:13;100027.15;;;2.58;80.86
77153;BME280;66124;51.146;17.072;2023-11-19T06:18:43;100022.39;;;2.61;80.89
77153;BME280;66124;51.146;17.072;2023-11-19T06:21:13;100015.50;;;2.63;80.75
77153;BME280;66124;51.146;17.072;2023-11-19T06:23:42;100011.44;;;2.63;80.77
77153;BME280;66124;51.146;17.072;2023-11-19T06:26:12;100021.25;;;2.64;80.52
77153;BME280;66124;51.146;17.072;2023-11-19T06:28:42;100011.80;;;2.65;80.53
77153;BME280;66124;51.146;17.072;2023-11-19T06:31:11;100009.59;;;2.67;80.69
77153;BME280;66124;51.146;17.072;2023-11-19T06:33:41;100005.74;;;2.69;80.59
77153;BME280;66124;51.146;17.072;2023-11-19T06:36:13;99999.48;;;2.69;80.57
77153;BME280;66124;51.146;17.072;2023-11-19T06:38:43;99991.17;;;2.69;80.78
77153;BME280;66124;51.146;17.072;2023-11-19T06:41:12;99982.44;;;2.70;80.77
77153;BME280;66124;51.146;17.072;2023-11-19T06:43:42;99972.90;;;2.69;80.56
77153;BME280;66124;51.146;17.072;2023-11-19T06:46:17;99972.90;;;2.69;81.01
77153;BME280;66124;51.146;17.072;2023-11-19T06:48:47;99978.63;;;2.69;80.89
77153;BME280;66124;51.146;17.072;2023-11-19T06:51:17;99968.48;;;2.70;80.85
77153;BME280;66124;51.146;17.072;2023-11-19T06:53:46;99955.93;;;2.71;80.96
77153;BME280;66124;51.146;17.072;2023-11-19T06:56:23;99939.08;;;2.73;80.79
77153;BME280;66124;51.146;17.072;2023-11-19T06:58:53;99941.56;;;2.74;80.69
77153;BME280;66124;51.146;17.072;2023-11-19T07:01:22;99937.61;;;2.76;80.66
77153;BME280;66124;51.146;17.072;2023-11-19T07:03:52;99926.84;;;2.78;80.74
77153;BME280;66124;51.146;17.072;2023-11-19T07:06:21;99919.00;;;2.82;80.62
77153;BME280;66124;51.146;17.072;2023-11-19T07:08:51;99920.04;;;2.84;80.47
77153;BME280;66124;51.146;17.072;2023-11-19T07:11:20;99921.97;;;2.86;80.67
77153;BME280;66124;51.146;17.072;2023-11-19T07:13:50;99918.25;;;2.88;80.58
77153;BME280;66124;51.146;17.072;2023-11-19T07:16:19;99919.48;;;2.92;80.55
77153;BME280;66124;51.146;17.072;2023-11-19T07:18:50;99915.27;;;2.95;80.58
77153;BME280;66124;51.146;17.072;2023-11-19T07:21:19;99906.92;;;2.98;80.60
77153;BME280;66124;51.146;17.072;2023-11-19T07:23:47;99900.48;;;3.02;80.58
77153;BME280;66124;51.146;17.072;2023-11-19T07:31:16;99891.55;;;3.16;80.17
77153;BME280;66124;51.146;17.072;2023-11-19T07:33:46;99892.69;;;3.19;80.50
77153;BME280;66124;51.146;17.072;2023-11-19T07:36:16;99892.95;;;3.23;80.43
77153;BME280;66124;51.146;17.072;2023-11-19T07:38:46;99892.14;;;3.28;80.14
77153;BME280;66124;51.146;17.072;2023-11-19T07:41:17;99896.29;;;3.31;79.90
77153;BME280;66124;51.146;17.072;2023-11-19T07:43:46;99900.83;;;3.34;80.15
77153;BME280;66124;51.146;17.072;2023-11-19T07:46:16;99893.58;;;3.37;80.07
77153;BME280;66124;51.146;17.072;2023-11-19T07:48:45;99882.17;;;3.40;79.80
77153;BME280;66124;51.146;17.072;2023-11-19T07:51:16;99877.98;;;3.42;79.78
77153;BME280;66124;51.146;17.072;2023-11-19T07:53:45;99870.98;;;3.43;79.76
77153;BME280;66124;51.146;17.072;2023-11-19T07:56:15;99869.23;;;3.43;79.37
77153;BME280;66124;51.146;17.072;2023-11-19T07:58:44;99871.97;;;3.43;79.61
77153;BME280;66124;51.146;17.072;2023-11-19T08:01:13;99875.11;;;3.43;79.71
77153;BME280;66124;51.146;17.072;2023-11-19T08:03:44;99871.06;;;3.44;79.33
77153;BME280;66124;51.146;17.072;2023-11-19T08:06:14;99871.70;;;3.42;79.50
77153;BME280;66124;51.146;17.072;2023-11-19T08:08:43;99865.14;;;3.42;79.39
77153;BME280;66124;51.146;17.072;2023-11-19T08:11:12;99854.73;;;3.40;79.58
77153;BME280;66124;51.146;17.072;2023-11-19T08:13:42;99853.55;;;3.40;79.72
77153;BME280;66124;51.146;17.072;2023-11-19T08:16:11;99849.66;;;3.39;79.59
77153;BME280;66124;51.146;17.072;2023-11-19T08:18:42;99848.92;;;3.39;79.67
77153;BME280;66124;51.146;17.072;2023-11-19T08:21:12;99842.21;;;3.40;79.84
77153;BME280;66124;51.146;17.072;2023-11-19T08:23:42;99834.15;;;3.41;79.78
77153;BME280;66124;51.146;17.072;2023-11-19T08:26:11;99833.41;;;3.42;79.71
77153;BME280;66124;51.146;17.072;2023-11-19T08:28:41;99829.42;;;3.42;79.53
77153;BME280;66124;51.146;17.072;2023-11-19T08:31:11;99824.33;;;3.42;79.70
77153;BME280;66124;51.146;17.072;2023-11-19T08:33:41;99819.40;;;3.42;79.60
77153;BME280;66124;51.146;17.072;2023-11-19T08:36:16;99816.69;;;3.44;79.80
77153;BME280;66124;51.146;17.072;2023-11-19T08:38:46;99807.52;;;3.43;79.56
77153;BME280;66124;51.146;17.072;2023-11-19T08:41:14;99800.93;;;3.42;79.98
77153;BME280;66124;51.146;17.072;2023-11-19T08:43:42;99794.39;;;3.42;79.71
77153;BME280;66124;51.146;17.072;2023-11-19T08:51:16;99777.59;;;3.38;79.99
77153;BME280;66124;51.146;17.072;2023-11-19T08:53:45;99769.16;;;3.30;80.18
77153;BME280;66124;51.146;17.072;2023-11-19T08:56:15;99764.19;;;3.26;80.19
77153;BME280;66124;51.146;17.072;2023-11-19T08:58:44;99757.58;;;3.21;80.07
77153;BME280;66124;51.146;17.072;2023-11-19T09:01:13;99756.30;;;3.18;80.26
77153;BME280;66124;51.146;17.072;2023-11-19T09:03:45;99758.59;;;3.16;80.27
77153;BME280;66124;51.146;17.072;2023-11-19T09:06:15;99761.59;;;3.13;80.45
77153;BME280;66124;51.146;17.072;2023-11-19T09:08:45;99754.15;;;3.13;80.67
77153;BME280;66124;51.146;17.072;2023-11-19T09:11:14;99745.76;;;3.14;80.94
77153;BME280;66124;51.146;17.072;2023-11-19T09:13:43;99739.87;;;3.13;81.02
77153;BME280;66124;51.146;17.072;2023-11-19T09:16:14;99737.36;;;3.16;80.77
77153;BME280;66124;51.146;17.072;2023-11-19T09:18:43;99740.48;;;3.18;80.94
77153;BME280;66124;51.146;17.072;2023-11-19T09:21:13;99741.95;;;3.21;80.96
77153;BME280;66124;51.146;17.072;2023-11-19T09:23:42;99737.80;;;3.22;81.27
77153;BME280;66124;51.146;17.072;2023-11-19T09:26:12;99737.38;;;3.25;81.26
77153;BME280;66124;51.146;17.072;2023-11-19T09:28:42;99734.73;;;3.27;81.06
77153;BME280;66124;51.146;17.072;2023-11-19T09:31:18;99722.02;;;3.29;81.56
77153;BME280;66124;51.146;17.072;2023-11-19T09:33:48;99723.39;;;3.33;81.38
77153;BME280;66124;51.146;17.072;2023-11-19T09:36:17;99723.94;;;3.34;81.29
77153;BME280;66124;51.146;17.072;2023-11-19T09:38:46;99724.66;;;3.38;81.35
77153;BME280;66124;51.146;17.072;2023-11-19T09:41:17;99712.80;;;3.38;81.39
77153;BME280;66124;51.146;17.072;2023-11-19T09:43:46;99710.39;;;3.40;81.26
77153;BME280;66124;51.146;17.072;2023-11-19T09:46:16;99710.63;;;3.45;81.52
77153;BME280;66124;51.146;17.072;2023-11-19T09:48:46;99709.89;;;3.48;81.56
77153;BME280;66124;51.146;17.072;2023-11-19T09:51:16;99699.69;;;3.53;81.77
77153;BME280;66124;51.146;17.072;2023-11-19T09:53:45;99693.33;;;3.58;81.68
77153;BME280;66124;51.146;17.072;2023-11-19T09:56:15;99685.15;;;3.64;81.74
77153;BME280;66124;51.146;17.072;2023-11-19T09:58:45;99678.84;;;3.68;81.60
77153;BME280;66124;51.146;17.072;2023-11-19T10:01:15;99668.63;;;3.71;81.71
77153;BME280;66124;51.146;17.072;2023-11-19T10:03:43;99660.63;;;3.73;81.41
77153;BME280;66124;51.146;17.072;2023-11-19T10:11:38;99627.91;;;3.85;81.75
77153;BME280;66124;51.146;17.072;2023-11-19T10:14:07;99621.85;;;3.85;81.74
77153;BME280;66124;51.146;17.072;2023-11-19T10:16:39;99630.34;;;3.89;81.55
77153;BME280;66124;51.146;17.072;2023-11-19T10:19:08;99628.06;;;3.92;81.88
77153;BME280;66124;51.146;17.072;2023-11-19T10:21:41;99622.82;;;3.93;81.65
77153;BME280;66124;51.146;17.072;2023-11-19T10:24:11;99618.15;;;3.96;81.90
77153;BME280;66124;51.146;17.072;2023-11-19T10:26:41;99610.48;;;4.00;82.05
77153;BME280;66124;51.146;17.072;2023-11-19T10:29:14;99605.89;;;4.05;81.83
77153;BME280;66124;51.146;17.072;2023-11-19T10:31:57;99592.64;;;4.14;82.14
77153;BME280;66124;51.146;17.072;2023-11-19T10:34:28;99584.70;;;4.24;82.05
77153;BME280;66124;51.146;17.072;2023-11-19T10:36:57;99577.80;;;4.32;82.18
77153;BME280;66124;51.146;17.072;2023-11-19T10:42:18;99561.86;;;4.48;82.10
77153;BME280;66124;51.146;17.072;2023-11-19T10:44:48;99564.28;;;4.53;81.97
77153;BME280;66124;51.146;17.072;2023-11-19T10:47:20;99559.52;;;4.59;82.17
77153;BME280;66124;51.146;17.072;2023-11-19T10:49:51;99556.61;;;4.63;81.87
77153;BME280;66124;51.146;17.072;2023-11-19T10:52:21;99559.78;;;4.66;82.08
77153;BME280;66124;51.146;17.072;2023-11-19T10:54:51;99553.16;;;4.66;81.97
77153;BME280;66124;51.146;17.072;2023-11-19T10:57:23;99551.14;;;4.67;82.23
77153;BME280;66124;51.146;17.072;2023-11-19T10:59:59;99554.49;;;4.67;82.15
77153;BME280;66124;51.146;17.072;2023-11-19T11:02:33;99553.33;;;4.70;82.58
77153;BME280;66124;51.146;17.072;2023-11-19T11:05:03;99549.29;;;4.72;82.35
77153;BME280;66124;51.146;17.072;2023-11-19T11:07:34;99538.61;;;4.74;82.72
77153;BME280;66124;51.146;17.072;2023-11-19T11:10:06;99523.74;;;4.78;83.02
77153;BME280;66124;51.146;17.072;2023-11-19T11:12:39;99520.49;;;4.79;82.82
77153;BME280;66124;51.146;17.072;2023-11-19T11:15:12;99526.86;;;4.78;82.87
77153;BME280;66124;51.146;17.072;2023-11-19T11:17:42;99526.42;;;4.79;82.84
77153;BME280;66124;51.146;17.072;2023-11-19T11:20:13;99528.04;;;4.80;82.86
77153;BME280;66124;51.146;17.072;2023-11-19T11:22:42;99525.59;;;4.82;82.87
77153;BME280;66124;51.146;17.072;2023-11-19T11:31:35;99510.73;;;4.99;83.26
77153;BME280;66124;51.146;17.072;2023-11-19T11:34:24;99507.76;;;5.01;83.05
77153;BME280;66124;51.146;17.072;2023-11-19T11:37:09;99501.11;;;5.06;83.18
77153;BME280;66124;51.146;17.072;2023-11-19T11:39:41;99500.08;;;5.11;83.33
77153;BME280;66124;51.146;17.072;2023-11-19T11:42:34;99499.05;;;5.12;83.19
77153;BME280;66124;51.146;17.072;2023-11-19T11:45:05;99496.83;;;5.08;82.97
77153;BME280;66124;51.146;17.072;2023-11-19T11:48:08;99494.25;;;5.05;83.12
77153;BME280;66124;51.146;17.072;2023-11-19T11:50:52;99492.84;;;5.02;83.04
77153;BME280;66124;51.146;17.072;2023-11-19T11:53:26;99491.98;;;5.00;83.33
77153;BME280;66124;51.146;17.072;2023-11-19T11:55:59;99491.73;;;4.97;83.31
77153;BME280;66124;51.146;17.072;2023-11-19T11:58:32;99489.91;;;5.00;83.35
77153;BME280;66124;51.146;17.072;2023-11-19T12:01:06;99485.45;;;5.01;83.32
77153;BME280;66124;51.146;17.072;2023-11-19T12:03:36;99488.52;;;5.03;83.61
77153;BME280;66124;51.146;17.072;2023-11-19T12:06:08;99486.51;;;5.04;83.54
77153;BME280;66124;51.146;17.072;2023-11-19T12:08:37;99479.81;;;5.05;83.46
77153;BME280;66124;51.146;17.072;2023-11-19T12:11:08;99475.80;;;5.06;83.41
77153;BME280;66124;51.146;17.072;2023-11-19T12:13:55;99467.86;;;5.09;83.78
77153;BME280;66124;51.146;17.072;2023-11-19T12:16:25;99467.91;;;5.12;83.73
77153;BME280;66124;51.146;17.072;2023-11-19T12:18:55;99459.95;;;5.14;83.71
77153;BME280;66124;51.146;17.072;2023-11-19T12:21:32;99459.66;;;5.19;83.63
77153;BME280;66124;51.146;17.072;2023-11-19T12:24:03;99458.39;;;5.22;83.81
77153;BME280;66124;51.146;17.072;2023-11-19T12:26:39;99457.44;;;5.26;83.75
77153;BME280;66124;51.146;17.072;2023-11-19T12:29:09;99449.46;;;5.31;83.72
77153;BME280;66124;51.146;17.072;2023-11-19T12:31:39;99445.96;;;5.34;83.80
77153;BME280;66124;51.146;17.072;2023-11-19T12:34:16;99447.66;;;5.38;83.90
77153;BME280;66124;51.146;17.072;2023-11-19T12:36:45;99440.96;;;5.41;83.71
77153;BME280;66124;51.146;17.072;2023-11-19T12:39:15;99434.41;;;5.47;83.88
77153;BME280;66124;51.146;17.072;2023-11-19T12:41:54;99437.60;;;5.53;83.78
77153;BME280;66124;51.146;17.072;2023-11-19T12:44:23;99431.55;;;5.59;83.80
77153;BME280;66124;51.146;17.072;2023-11-19T12:49:58;99421.11;;;5.73;83.60
77153;BME280;66124;51.146;17.072;2023-11-19T12:52:27;99421.89;;;5.76;83.75
77153;BME280;66124;51.146;17.072;2023-11-19T12:54:57;99420.95;;;5.81;83.68
77153;BME280;66124;51.146;17.072;2023-11-19T12:57:39;99415.73;;;5.87;83.67
77153;BME280;66124;51.146;17.072;2023-11-19T13:00:20;99414.77;;;5.94;83.73
77153;BME280;66124;51.146;17.072;2023-11-19T13:02:51;99416.23;;;6.01;83.46
77153;BME280;66124;51.146;17.072;2023-11-19T13:05:28;99412.84;;;6.08;83.46
77153;BME280;66124;51.146;17.072;2023-11-19T13:08:02;99405.55;;;6.15;83.37
77153;BME280;66124;51.146;17.072;2023-11-19T13:10:33;99402.17;;;6.22;83.20
77153;BME280;66124;51.146;17.072;2023-11-19T13:13:07;99402.02;;;6.28;83.24
77153;BME280;66124;51.146;17.072;2023-11-19T13:15:37;99399.45;;;6.35;83.28
77153;BME280;66124;51.146;17.072;2023-11-19T13:18:06;99398.38;;;6.40;83.30
77153;BME280;66124;51.146;17.072;2023-11-19T13:20:36;99398.05;;;6.45;83.05
77153;BME280;66124;51.146;17.072;2023-11-19T13:23:06;99393.05;;;6.49;83.08
77153;BME280;66124;51.146;17.072;2023-11-19T13:25:36;99387.78;;;6.52;82.95
77153;BME280;66124;51.146;17.072;2023-11-19T13:28:05;99386.23;;;6.55;83.13
77153;BME280;66124;51.146;17.072;2023-11-19T13:30:35;99379.39;;;6.57;82.88
77153;BME280;66124;51.146;17.072;2023-11-19T13:33:04;99382.02;;;6.58;83.05
77153;BME280;66124;51.146;17.072;2023-11-19T13:35:34;99377.74;;;6.58;82.78
77153;BME280;66124;51.146;17.072;2023-11-19T13:38:03;99381.72;;;6.61;82.83
77153;BME280;66124;51.146;17.072;2023-11-19T13:40:32;99372.67;;;6.65;82.86
77153;BME280;66124;51.146;17.072;2023-11-19T13:43:02;99371.87;;;6.72;82.89
77153;BME280;66124;51.146;17.072;2023-11-19T13:45:32;99370.34;;;6.79;82.86
77153;BME280;66124;51.146;17.072;2023-11-19T13:48:01;99367.56;;;6.86;82.67
77153;BME280;66124;51.146;17.072;2023-11-19T13:50:31;99372.19;;;6.93;82.73
77153;BME280;66124;51.146;17.072;2023-11-19T13:53:00;99376.81;;;7.00;82.86
77153;BME280;66124;51.146;17.072;2023-11-19T13:55:30;99370.46;;;7.06;82.86
77153;BME280;66124;51.146;17.072;2023-11-19T13:57:59;99371.53;;;7.12;82.70
77153;BME280;66124;51.146;17.072;2023-11-19T14:00:27;99374.50;;;7.17;82.56
77153;BME280;66124;51.146;17.072;2023-11-19T14:02:55;99378.07;;;7.20;82.63
77153;BME280;66124;51.146;17.072;2023-11-19T14:10:56;99374.19;;;7.32;82.38
77153;BME280;66124;51.146;17.072;2023-11-19T14:13:26;99370.88;;;7.32;82.29
77153;BME280;66124;51.146;17.072;2023-11-19T14:15:55;99371.17;;;7.36;82.35
77153;BME280;66124;51.146;17.072;2023-11-19T14:18:25;99372.46;;;7.41;82.23